createdAt,value
2019-02-05T00:00:15.555Z,312.28
2019-02-05T00:01:15.534Z,306.42
2019-02-05T00:02:15.514Z,312.22
2019-02-05T00:03:15.522Z,306.28
2019-02-05T00:04:15.493Z,312.10
2019-02-05T00:05:15.502Z,306.46
2019-02-05T00:06:15.478Z,312.03
2019-02-05T00:07:15.504Z,311.96
2019-02-05T00:08:15.465Z,311.79
2019-02-05T00:09:15.452Z,312.25
2019-02-05T00:10:15.430Z,311.90
2019-02-05T00:11:15.418Z,312.16
2019-02-05T00:12:15.409Z,312.07
2019-02-05T00:13:15.416Z,311.92
2019-02-05T00:14:15.381Z,312.12
2019-02-05T00:15:15.387Z,311.70
2019-02-05T00:16:15.393Z,311.79
2019-02-05T00:17:15.351Z,311.48
2019-02-05T00:18:15.355Z,311.42
2019-02-05T00:19:15.327Z,311.42
2019-02-05T00:20:15.322Z,311.72
2019-02-05T00:21:15.307Z,311.88
2019-02-05T00:22:15.304Z,311.58
2019-02-05T00:23:15.302Z,311.92
2019-02-05T00:24:15.279Z,312.00
2019-02-05T00:25:15.268Z,311.68
2019-02-05T00:26:15.253Z,311.68
2019-02-05T00:27:15.240Z,311.72
2019-02-05T00:28:15.260Z,311.55
2019-02-05T00:29:15.219Z,311.41
2019-02-05T00:30:15.213Z,311.65
2019-02-05T00:31:15.198Z,311.33
2019-02-05T00:32:15.192Z,311.54
2019-02-05T00:33:15.185Z,311.82
2019-02-05T00:34:15.165Z,311.38
2019-02-05T00:35:15.167Z,311.85
2019-02-05T00:36:15.149Z,312.13
2019-02-05T00:37:15.140Z,311.68
2019-02-05T00:38:15.145Z,311.91
2019-02-05T00:39:15.114Z,311.46
2019-02-05T00:40:15.098Z,311.68
2019-02-05T00:41:15.079Z,311.77
2019-02-05T00:42:15.084Z,311.73
2019-02-05T00:43:15.068Z,311.62
2019-02-05T00:44:15.074Z,311.57
2019-02-05T00:45:15.056Z,311.80
2019-02-05T00:46:15.030Z,311.78
2019-02-05T00:47:15.022Z,312.06
2019-02-05T00:48:15.012Z,311.75
2019-02-05T00:49:15.019Z,311.46
2019-02-05T00:50:14.990Z,311.82
2019-02-05T00:51:14.979Z,312.25
2019-02-05T00:52:14.976Z,311.70
2019-02-05T00:53:14.956Z,311.74
2019-02-05T00:54:15.085Z,311.90
2019-02-05T00:55:14.938Z,311.52
2019-02-05T00:56:17.760Z,311.35
2019-02-05T00:57:14.921Z,311.98
2019-02-05T00:58:14.912Z,311.90
2019-02-05T00:59:15.678Z,311.54
2019-02-05T01:00:14.903Z,311.97
2019-02-05T01:01:15.463Z,311.71
2019-02-05T01:02:14.853Z,311.56
2019-02-05T01:03:14.855Z,312.12
2019-02-05T01:04:14.862Z,311.67
2019-02-05T01:05:14.838Z,311.66
2019-02-05T01:06:14.819Z,311.77
2019-02-05T01:07:14.800Z,311.31
2019-02-05T01:08:14.810Z,311.59
2019-02-05T01:09:14.800Z,311.87
2019-02-05T01:10:14.772Z,311.36
2019-02-05T01:11:14.765Z,311.83
2019-02-05T01:12:14.750Z,311.40
2019-02-05T01:13:14.742Z,311.38
2019-02-05T01:14:14.746Z,311.49
2019-02-05T01:15:14.713Z,311.02
2019-02-05T01:16:14.712Z,311.15
2019-02-05T01:17:14.699Z,311.33
2019-02-05T01:18:14.677Z,311.79
2019-02-05T01:19:14.698Z,311.33
2019-02-05T01:20:14.663Z,311.00
2019-02-05T01:21:14.649Z,311.33
2019-02-05T01:22:14.651Z,311.54
2019-02-05T01:23:14.634Z,311.65
2019-02-05T01:24:14.625Z,311.68
2019-02-05T01:25:14.626Z,311.53
2019-02-05T01:26:14.609Z,311.60
2019-02-05T01:27:14.594Z,312.00
2019-02-05T01:28:14.571Z,311.57
2019-02-05T01:29:14.569Z,311.31
2019-02-05T01:30:14.579Z,311.60
2019-02-05T01:31:14.532Z,311.52
2019-02-05T01:32:14.540Z,311.53
2019-02-05T01:33:14.530Z,311.90
2019-02-05T01:34:14.525Z,311.73
2019-02-05T01:35:14.518Z,311.83
2019-02-05T01:36:14.486Z,311.55
2019-02-05T01:37:14.485Z,311.53
2019-02-05T01:38:14.461Z,311.52
2019-02-05T01:39:14.452Z,311.65
2019-02-05T01:40:14.461Z,311.81
2019-02-05T01:41:14.435Z,311.89
2019-02-05T01:42:14.430Z,311.84
2019-02-05T01:43:14.427Z,312.03
2019-02-05T01:44:14.401Z,311.83
2019-02-05T01:45:14.409Z,311.86
2019-02-05T01:46:14.376Z,311.98
2019-02-05T01:47:14.376Z,311.80
2019-02-05T01:48:14.363Z,311.90
2019-02-05T01:49:14.344Z,312.09
2019-02-05T01:50:14.354Z,311.95
2019-02-05T01:51:14.320Z,311.43
2019-02-05T01:52:14.322Z,311.94
2019-02-05T01:53:14.299Z,311.91
2019-02-05T01:54:14.300Z,311.45
2019-02-05T01:55:14.303Z,311.73
2019-02-05T01:56:14.279Z,311.84
2019-02-05T01:57:14.264Z,311.78
2019-02-05T01:58:14.259Z,311.47
2019-02-05T01:59:14.237Z,311.87
2019-02-05T02:00:14.234Z,311.93
2019-02-05T02:01:14.214Z,311.80
2019-02-05T02:02:14.205Z,311.40
2019-02-05T02:03:14.195Z,311.49
2019-02-05T02:04:14.181Z,311.33
2019-02-05T02:05:14.186Z,311.84
2019-02-05T02:06:14.167Z,311.93
2019-02-05T02:07:14.149Z,311.39
2019-02-05T02:08:14.143Z,311.91
2019-02-05T02:09:14.125Z,312.44
2019-02-05T02:10:14.139Z,312.08
2019-02-05T02:11:14.111Z,311.16
2019-02-05T02:12:14.093Z,312.09
2019-02-05T02:13:14.087Z,311.89
2019-02-05T02:14:14.075Z,311.71
2019-02-05T02:15:14.069Z,312.38
2019-02-05T02:16:14.075Z,312.23
2019-02-05T02:17:14.041Z,312.05
2019-02-05T02:18:14.034Z,312.43
2019-02-05T02:19:14.020Z,312.31
2019-02-05T02:20:14.009Z,312.56
2019-02-05T02:21:14.019Z,312.42
2019-02-05T02:22:13.980Z,312.36
2019-02-05T02:23:13.974Z,312.14
2019-02-05T02:24:13.963Z,311.88
2019-02-05T02:25:13.954Z,312.52
2019-02-05T02:26:13.954Z,312.45
2019-02-05T02:27:13.934Z,312.36
2019-02-05T02:28:13.916Z,312.35
2019-02-05T02:29:13.931Z,312.49
2019-02-05T02:30:13.897Z,312.98
2019-02-05T02:31:13.900Z,313.12
2019-02-05T02:32:13.883Z,312.47
2019-02-05T02:33:13.864Z,313.20
2019-02-05T02:34:13.855Z,312.91
2019-02-05T02:35:13.854Z,313.03
2019-02-05T02:36:13.858Z,313.09
2019-02-05T02:37:13.830Z,312.72
2019-02-05T02:38:13.816Z,312.60
2019-02-05T02:39:13.810Z,312.71
2019-02-05T02:40:13.794Z,312.26
2019-02-05T02:41:13.799Z,312.52
2019-02-05T02:42:13.766Z,312.64
2019-02-05T02:43:13.766Z,312.76
2019-02-05T02:44:13.739Z,312.68
2019-02-05T02:45:13.761Z,312.57
2019-02-05T02:46:13.754Z,312.79
2019-02-05T02:47:13.709Z,312.63
2019-02-05T02:48:13.704Z,312.75
2019-02-05T02:49:13.706Z,312.24
2019-02-05T02:50:13.676Z,312.36
2019-02-05T02:51:13.686Z,312.30
2019-02-05T02:52:13.658Z,312.44
2019-02-05T02:53:13.648Z,312.91
2019-02-05T02:54:13.639Z,312.54
2019-02-05T02:55:13.624Z,312.13
2019-02-05T02:56:13.634Z,311.98
2019-02-05T02:57:13.617Z,311.98
2019-02-05T02:58:13.767Z,312.04
2019-02-05T02:59:13.573Z,311.85
2019-02-05T03:00:13.569Z,311.81
2019-02-05T03:01:13.577Z,311.96
2019-02-05T03:02:13.554Z,312.20
2019-02-05T03:03:13.532Z,312.44
2019-02-05T03:04:13.528Z,312.01
2019-02-05T03:05:13.521Z,312.22
2019-02-05T03:06:13.521Z,312.14
2019-02-05T03:07:13.498Z,312.36
2019-02-05T03:08:13.492Z,312.66
2019-02-05T03:09:13.475Z,312.07
2019-02-05T03:10:13.460Z,311.96
2019-02-05T03:11:13.470Z,312.27
2019-02-05T03:12:13.437Z,311.41
2019-02-05T03:13:13.431Z,312.03
2019-02-05T03:14:13.422Z,312.40
2019-02-05T03:15:13.403Z,311.84
2019-02-05T03:16:13.419Z,312.52
2019-02-05T03:17:13.383Z,312.39
2019-02-05T03:18:13.379Z,312.16
2019-02-05T03:19:13.370Z,312.06
2019-02-05T03:20:13.501Z,312.36
2019-02-05T03:21:13.363Z,312.55
2019-02-05T03:22:13.526Z,312.27
2019-02-05T03:23:13.321Z,312.37
2019-02-05T03:24:13.313Z,312.60
2019-02-05T03:25:13.293Z,312.42
2019-02-05T03:26:13.287Z,312.28
2019-02-05T03:27:17.784Z,311.98
2019-02-05T03:28:14.258Z,312.12
2019-02-05T03:29:13.252Z,312.49
2019-02-05T03:30:13.247Z,312.30
2019-02-05T03:31:13.236Z,312.23
2019-02-05T03:32:13.242Z,312.28
2019-02-05T03:33:13.213Z,312.72
2019-02-05T03:34:13.211Z,312.38
2019-02-05T03:35:13.193Z,312.70
2019-02-05T03:36:13.187Z,312.35
2019-02-05T03:37:13.188Z,312.47
2019-02-05T03:38:13.160Z,312.69
2019-02-05T03:39:13.148Z,312.17
2019-02-05T03:40:13.142Z,312.41
2019-02-05T03:41:13.146Z,312.02
2019-02-05T03:42:13.159Z,312.29
2019-02-05T03:43:13.101Z,312.70
2019-02-05T03:44:13.093Z,312.77
2019-02-05T03:45:13.077Z,312.80
2019-02-05T03:46:13.065Z,312.48
2019-02-05T03:47:13.067Z,311.98
2019-02-05T03:48:13.050Z,312.71
2019-02-05T03:49:13.029Z,312.56
2019-02-05T03:50:13.035Z,312.88
2019-02-05T03:51:13.016Z,312.32
2019-02-05T03:52:13.107Z,312.67
2019-02-05T03:53:12.986Z,312.53
2019-02-05T03:54:12.984Z,312.27
2019-02-05T03:55:12.968Z,312.61
2019-02-05T03:56:12.956Z,312.63
2019-02-05T03:57:12.964Z,312.65
2019-02-05T03:58:12.940Z,312.32
2019-02-05T03:59:12.923Z,312.88
2019-02-05T04:00:12.927Z,312.67
2019-02-05T04:01:12.898Z,313.09
2019-02-05T04:02:12.947Z,312.30
2019-02-05T04:03:12.904Z,312.83
2019-02-05T04:04:12.881Z,312.77
2019-02-05T04:05:12.857Z,312.16
2019-02-05T04:06:12.864Z,312.86
2019-02-05T04:07:12.867Z,312.84
2019-02-05T04:08:12.841Z,312.93
2019-02-05T04:09:12.825Z,312.83
2019-02-05T04:10:12.803Z,312.90
2019-02-05T04:11:12.796Z,312.58
2019-02-05T04:12:12.790Z,312.35
2019-02-05T04:13:12.789Z,313.20
2019-02-05T04:14:12.761Z,313.02
2019-02-05T04:15:12.762Z,313.23
2019-02-05T04:16:12.737Z,313.50
2019-02-05T04:17:12.726Z,312.66
2019-02-05T04:18:12.748Z,313.12
2019-02-05T04:19:12.717Z,313.31
2019-02-05T04:20:12.707Z,313.20
2019-02-05T04:21:12.678Z,312.70
2019-02-05T04:22:12.666Z,313.04
2019-02-05T04:23:12.680Z,313.08
2019-02-05T04:24:12.648Z,313.31
2019-02-05T04:25:12.751Z,312.90
2019-02-05T04:26:12.633Z,313.15
2019-02-05T04:27:12.616Z,313.11
2019-02-05T04:28:12.619Z,312.81
2019-02-05T04:29:12.607Z,312.60
2019-02-05T04:30:12.589Z,312.90
2019-02-05T04:31:12.655Z,312.47
2019-02-05T04:32:12.567Z,313.06
2019-02-05T04:33:12.591Z,313.21
2019-02-05T04:34:12.563Z,312.97
2019-02-05T04:35:12.533Z,312.97
2019-02-05T04:36:12.521Z,312.98
2019-02-05T04:37:12.511Z,312.76
2019-02-05T04:38:12.526Z,312.86
2019-02-05T04:39:12.494Z,313.00
2019-02-05T04:40:12.489Z,312.97
2019-02-05T04:41:12.459Z,312.84
2019-02-05T04:42:12.466Z,312.78
2019-02-05T04:43:12.448Z,312.73
2019-02-05T04:44:12.437Z,313.06
2019-02-05T04:45:12.442Z,312.65
2019-02-05T04:46:12.425Z,312.76
2019-02-05T04:47:12.404Z,312.98
2019-02-05T04:48:12.421Z,313.59
2019-02-05T04:49:12.386Z,313.66
2019-02-05T04:50:12.402Z,313.35
2019-02-05T04:51:12.353Z,313.63
2019-02-05T04:52:12.339Z,313.75
2019-02-05T04:53:12.330Z,313.79
2019-02-05T04:54:12.329Z,313.48
2019-02-05T04:55:12.318Z,313.81
2019-02-05T04:56:12.298Z,313.70
2019-02-05T04:57:12.309Z,313.83
2019-02-05T04:58:12.285Z,314.00
2019-02-05T04:59:12.281Z,314.21
2019-02-05T05:00:12.267Z,313.75
2019-02-05T05:01:12.244Z,313.95
2019-02-05T05:02:12.239Z,313.58
2019-02-05T05:03:12.226Z,313.80
2019-02-05T05:04:12.228Z,313.93
2019-02-05T05:05:12.208Z,314.03
2019-02-05T05:06:12.200Z,313.85
2019-02-05T05:07:12.206Z,313.60
2019-02-05T05:08:12.176Z,314.06
2019-02-05T05:09:12.166Z,314.08
2019-02-05T05:10:12.155Z,313.99
2019-02-05T05:11:12.137Z,314.24
2019-02-05T05:12:12.132Z,314.26
2019-02-05T05:13:12.115Z,314.46
2019-02-05T05:14:12.123Z,314.40
2019-02-05T05:15:12.088Z,314.32
2019-02-05T05:16:12.089Z,314.11
2019-02-05T05:17:12.076Z,314.45
2019-02-05T05:18:15.299Z,314.16
2019-02-05T05:19:12.058Z,314.68
2019-02-05T05:20:12.042Z,314.62
2019-02-05T05:21:12.028Z,314.03
2019-02-05T05:22:12.023Z,314.13
2019-02-05T05:23:12.017Z,314.39
2019-02-05T05:24:12.032Z,314.51
2019-02-05T05:25:11.988Z,314.33
2019-02-05T05:26:11.966Z,314.85
2019-02-05T05:27:11.972Z,314.65
2019-02-05T05:28:11.948Z,314.71
2019-02-05T05:29:11.965Z,314.74
2019-02-05T05:30:11.933Z,315.03
2019-02-05T05:31:11.927Z,314.56
2019-02-05T05:32:11.911Z,314.49
2019-02-05T05:33:11.909Z,315.29
2019-02-05T05:34:11.891Z,315.08
2019-02-05T05:35:11.891Z,314.87
2019-02-05T05:36:11.874Z,314.57
2019-02-05T05:37:11.876Z,314.58
2019-02-05T05:38:11.843Z,314.32
2019-02-05T05:39:11.831Z,314.14
2019-02-05T05:40:11.837Z,314.53
2019-02-05T05:41:11.815Z,314.19
2019-02-05T05:42:11.792Z,314.11
2019-02-05T05:43:11.790Z,314.21
2019-02-05T05:44:11.781Z,314.17
2019-02-05T05:45:11.775Z,314.58
2019-02-05T05:46:11.765Z,314.61
2019-02-05T05:47:11.751Z,314.28
2019-02-05T05:48:11.783Z,314.43
2019-02-05T05:49:11.725Z,314.65
2019-02-05T05:50:11.735Z,314.86
2019-02-05T05:51:11.702Z,315.16
2019-02-05T05:52:11.695Z,314.58
2019-02-05T05:53:11.689Z,314.70
2019-02-05T05:54:11.707Z,314.55
2019-02-05T05:55:11.685Z,315.07
2019-02-05T05:56:11.647Z,314.90
2019-02-05T05:57:11.640Z,315.01
2019-02-05T05:58:22.361Z,314.86
2019-02-05T05:59:12.609Z,314.93
2019-02-05T06:00:11.630Z,314.92
2019-02-05T06:01:11.591Z,314.99
2019-02-05T06:02:11.598Z,315.50
2019-02-05T06:03:11.567Z,315.52
2019-02-05T06:04:11.566Z,315.32
2019-02-05T06:05:11.571Z,315.28
2019-02-05T06:06:11.537Z,315.06
2019-02-05T06:07:11.521Z,315.59
2019-02-05T06:08:11.514Z,315.57
2019-02-05T06:09:11.494Z,314.95
2019-02-05T06:10:11.511Z,315.39
2019-02-05T06:11:11.483Z,315.52
2019-02-05T06:12:11.476Z,315.74
2019-02-05T06:13:11.469Z,315.62
2019-02-05T06:14:11.457Z,315.53
2019-02-05T06:15:11.456Z,315.52
2019-02-05T06:16:11.424Z,315.20
2019-02-05T06:17:11.427Z,315.13
2019-02-05T06:18:11.419Z,315.21
2019-02-05T06:19:11.392Z,314.83
2019-02-05T06:20:11.413Z,314.65
2019-02-05T06:21:13.595Z,315.03
2019-02-05T06:22:11.362Z,315.07
2019-02-05T06:23:11.346Z,314.96
2019-02-05T06:24:11.342Z,314.98
2019-02-05T06:25:11.339Z,315.03
2019-02-05T06:26:11.341Z,315.18
2019-02-05T06:27:11.304Z,315.40
2019-02-05T06:28:11.316Z,315.28
2019-02-05T06:29:11.294Z,316.03
2019-02-05T06:30:11.282Z,316.00
2019-02-05T06:31:11.282Z,315.92
2019-02-05T06:32:11.248Z,315.62
2019-02-05T06:33:11.242Z,315.90
2019-02-05T06:34:11.248Z,315.48
2019-02-05T06:35:11.211Z,315.67
2019-02-05T06:36:11.224Z,315.76
2019-02-05T06:37:11.198Z,315.54
2019-02-05T06:38:11.192Z,315.56
2019-02-05T06:39:11.174Z,315.29
2019-02-05T06:40:11.158Z,315.67
2019-02-05T06:41:11.184Z,315.56
2019-02-05T06:42:11.150Z,315.80
2019-02-05T06:43:11.128Z,315.62
2019-02-05T06:44:11.126Z,315.39
2019-02-05T06:45:11.114Z,315.70
2019-02-05T06:46:11.117Z,315.38
2019-02-05T06:47:11.082Z,315.44
2019-02-05T06:48:11.078Z,315.64
2019-02-05T06:49:11.070Z,316.00
2019-02-05T06:50:11.063Z,316.16
2019-02-05T06:51:11.059Z,315.49
2019-02-05T06:52:11.033Z,315.69
2019-02-05T06:53:11.023Z,315.59
2019-02-05T06:54:11.033Z,315.62
2019-02-05T06:55:11.006Z,315.59
2019-02-05T06:56:11.014Z,315.65
2019-02-05T06:57:10.981Z,316.12
2019-02-05T06:58:10.969Z,315.43
2019-02-05T06:59:10.982Z,315.56
2019-02-05T07:00:10.951Z,315.26
2019-02-05T07:01:10.939Z,315.22
2019-02-05T07:02:10.942Z,314.94
2019-02-05T07:03:10.915Z,315.29
2019-02-05T07:04:10.894Z,315.62
2019-02-05T07:05:10.989Z,315.53
2019-02-05T07:06:10.882Z,315.93
2019-02-05T07:07:10.887Z,315.54
2019-02-05T07:08:10.852Z,315.14
2019-02-05T07:09:10.849Z,315.36
2019-02-05T07:10:10.844Z,315.62
2019-02-05T07:11:10.821Z,315.36
2019-02-05T07:12:10.819Z,315.56
2019-02-05T07:13:10.812Z,315.60
2019-02-05T07:14:10.794Z,315.21
2019-02-05T07:15:10.791Z,315.12
2019-02-05T07:16:10.763Z,315.20
2019-02-05T07:17:10.763Z,315.64
2019-02-05T07:18:10.739Z,315.62
2019-02-05T07:19:10.755Z,315.45
2019-02-05T07:20:10.716Z,315.56
2019-02-05T07:21:10.725Z,315.50
2019-02-05T07:22:10.721Z,315.96
2019-02-05T07:23:10.696Z,315.57
2019-02-05T07:24:10.679Z,315.61
2019-02-05T07:25:10.678Z,315.80
2019-02-05T07:26:10.660Z,315.72
2019-02-05T07:27:10.654Z,316.41
2019-02-05T07:28:10.641Z,316.12
2019-02-05T07:29:10.627Z,316.51
2019-02-05T07:30:10.647Z,316.28
2019-02-05T07:31:10.598Z,316.01
2019-02-05T07:32:10.616Z,316.25
2019-02-05T07:33:10.591Z,316.11
2019-02-05T07:34:10.594Z,316.45
2019-02-05T07:35:10.567Z,316.25
2019-02-05T07:36:10.568Z,316.25
2019-02-05T07:37:10.565Z,316.16
2019-02-05T07:38:10.593Z,315.97
2019-02-05T07:39:10.525Z,315.64
2019-02-05T07:40:10.621Z,316.08
2019-02-05T07:41:10.507Z,315.98
2019-02-05T07:42:10.478Z,315.99
2019-02-05T07:43:10.487Z,315.89
2019-02-05T07:44:10.463Z,316.15
2019-02-05T07:45:10.452Z,315.77
2019-02-05T07:46:10.460Z,315.83
2019-02-05T07:47:10.447Z,315.72
2019-02-05T07:48:10.441Z,315.78
2019-02-05T07:49:10.425Z,315.73
2019-02-05T07:50:10.388Z,315.78
2019-02-05T07:51:10.393Z,316.12
2019-02-05T07:52:10.371Z,315.69
2019-02-05T07:53:10.376Z,315.79
2019-02-05T07:54:10.357Z,315.14
2019-02-05T07:55:10.343Z,315.38
2019-02-05T07:56:12.866Z,315.60
2019-02-05T07:57:10.319Z,315.74
2019-02-05T07:58:10.324Z,315.71
2019-02-05T07:59:10.679Z,315.49
2019-02-05T08:00:10.289Z,315.37
2019-02-05T08:01:10.280Z,315.25
2019-02-05T08:02:10.270Z,315.38
2019-02-05T08:03:10.279Z,315.45
2019-02-05T08:04:10.243Z,315.57
2019-02-05T08:05:10.230Z,315.33
2019-02-05T08:06:10.228Z,315.31
2019-02-05T08:07:10.212Z,315.59
2019-02-05T08:08:10.209Z,315.68
2019-02-05T08:09:10.244Z,315.87
2019-02-05T08:10:10.178Z,315.42
2019-02-05T08:11:10.174Z,315.73
2019-02-05T08:12:10.156Z,316.29
2019-02-05T08:13:10.171Z,316.35
2019-02-05T08:14:10.129Z,315.68
2019-02-05T08:15:10.126Z,316.12
2019-02-05T08:16:10.116Z,315.72
2019-02-05T08:17:10.116Z,315.57
2019-02-05T08:18:10.106Z,315.96
2019-02-05T08:19:10.116Z,315.95
2019-02-05T08:20:10.072Z,315.58
2019-02-05T08:21:10.059Z,315.71
2019-02-05T08:22:10.056Z,315.43
2019-02-05T08:23:10.027Z,315.23
2019-02-05T08:24:10.050Z,315.77
2019-02-05T08:25:10.013Z,315.69
2019-02-05T08:26:10.002Z,316.55
2019-02-05T08:27:09.998Z,315.82
2019-02-05T08:28:09.975Z,315.98
2019-02-05T08:29:21.130Z,315.90
2019-02-05T08:30:10.961Z,315.78
2019-02-05T08:31:09.957Z,315.09
2019-02-05T08:32:09.928Z,314.99
2019-02-05T08:33:09.926Z,315.37
2019-02-05T08:34:09.966Z,315.27
2019-02-05T08:35:09.907Z,315.79
2019-02-05T08:36:09.889Z,316.06
2019-02-05T08:37:09.891Z,316.40
2019-02-05T08:38:09.872Z,316.07
2019-02-05T08:39:09.875Z,316.19
2019-02-05T08:40:09.851Z,315.70
2019-02-05T08:41:09.836Z,315.66
2019-02-05T08:42:09.827Z,315.62
2019-02-05T08:43:09.813Z,315.13
2019-02-05T08:44:09.819Z,315.11
2019-02-05T08:45:09.798Z,315.70
2019-02-05T08:46:09.779Z,315.55
2019-02-05T08:47:09.775Z,315.86
2019-02-05T08:48:09.757Z,316.05
2019-02-05T08:49:09.771Z,315.68
2019-02-05T08:50:09.850Z,315.31
2019-02-05T08:51:09.763Z,315.32
2019-02-05T08:52:09.706Z,315.16
2019-02-05T08:53:09.705Z,315.12
2019-02-05T08:54:09.697Z,315.00
2019-02-05T08:55:09.681Z,314.87
2019-02-05T08:56:09.689Z,314.82
2019-02-05T08:57:09.662Z,315.56
2019-02-05T08:58:09.664Z,315.07
2019-02-05T08:59:09.665Z,315.14
2019-02-05T09:00:09.636Z,315.12
2019-02-05T09:01:09.628Z,315.97
2019-02-05T09:02:09.603Z,316.12
2019-02-05T09:03:09.593Z,315.43
2019-02-05T09:04:09.616Z,315.64
2019-02-05T09:05:09.575Z,314.46
2019-02-05T09:06:09.554Z,315.11
2019-02-05T09:07:09.557Z,315.33
2019-02-05T09:08:09.550Z,316.06
2019-02-05T09:09:09.555Z,315.50
2019-02-05T09:10:09.519Z,314.92
2019-02-05T09:11:09.509Z,314.69
2019-02-05T09:12:09.512Z,315.43
2019-02-05T09:13:09.485Z,315.42
2019-02-05T09:14:10.880Z,315.52
2019-02-05T09:15:09.489Z,315.21
2019-02-05T09:16:09.444Z,314.75
2019-02-05T09:17:09.441Z,315.15
2019-02-05T09:18:09.439Z,315.47
2019-02-05T09:19:09.424Z,315.16
2019-02-05T09:20:09.428Z,314.82
2019-02-05T09:21:09.400Z,315.09
2019-02-05T09:22:09.399Z,314.36
2019-02-05T09:23:09.396Z,314.84
2019-02-05T09:24:09.372Z,315.19
2019-02-05T09:25:09.387Z,314.73
2019-02-05T09:26:09.349Z,315.13
2019-02-05T09:27:09.340Z,314.68
2019-02-05T09:28:09.316Z,315.35
2019-02-05T09:29:09.307Z,314.33
2019-02-05T09:30:09.318Z,314.57
2019-02-05T09:31:09.296Z,314.47
2019-02-05T09:32:09.282Z,314.53
2019-02-05T09:33:09.274Z,315.04
2019-02-05T09:34:09.253Z,314.54
2019-02-05T09:35:09.262Z,314.87
2019-02-05T09:36:09.230Z,314.93
2019-02-05T09:37:09.220Z,314.65
2019-02-05T09:38:09.217Z,314.69
2019-02-05T09:39:09.209Z,314.97
2019-02-05T09:40:09.211Z,315.55
2019-02-05T09:41:09.175Z,315.34
2019-02-05T09:42:09.165Z,315.10
2019-02-05T09:43:09.147Z,315.02
2019-02-05T09:44:09.136Z,314.40
2019-02-05T09:45:09.158Z,314.78
2019-02-05T09:46:09.116Z,314.95
2019-02-05T09:47:09.108Z,314.59
2019-02-05T09:48:09.090Z,314.88
2019-02-05T09:49:09.087Z,314.64
2019-02-05T09:50:09.089Z,314.00
2019-02-05T09:51:09.080Z,314.50
2019-02-05T09:52:09.049Z,314.59
2019-02-05T09:53:09.058Z,315.08
2019-02-05T09:54:09.030Z,315.06
2019-02-05T09:55:09.019Z,315.02
2019-02-05T09:56:09.018Z,314.97
2019-02-05T09:57:08.985Z,314.78
2019-02-05T09:58:08.987Z,314.80
2019-02-05T09:59:08.971Z,314.53
2019-02-05T10:00:09.825Z,314.85
2019-02-05T10:01:08.965Z,314.70
2019-02-05T10:02:08.940Z,314.80
2019-02-05T10:03:08.925Z,314.31
2019-02-05T10:04:08.925Z,314.59
2019-02-05T10:05:08.956Z,314.83
2019-02-05T10:06:08.906Z,314.44
2019-02-05T10:07:08.882Z,314.86
2019-02-05T10:08:08.878Z,314.80
2019-02-05T10:09:08.872Z,314.69
2019-02-05T10:10:08.868Z,314.96
2019-02-05T10:11:08.871Z,314.51
2019-02-05T10:12:08.829Z,314.68
2019-02-05T10:13:08.817Z,315.37
2019-02-05T10:14:08.813Z,314.94
2019-02-05T10:15:08.795Z,314.74
2019-02-05T10:16:08.814Z,314.83
2019-02-05T10:17:08.776Z,314.89
2019-02-05T10:18:08.772Z,314.95
2019-02-05T10:19:08.754Z,314.50
2019-02-05T10:20:08.747Z,314.18
2019-02-05T10:21:08.772Z,314.47
2019-02-05T10:22:08.705Z,314.52
2019-02-05T10:23:08.715Z,314.19
2019-02-05T10:24:08.692Z,314.56
2019-02-05T10:25:08.695Z,314.70
2019-02-05T10:26:08.697Z,315.24
2019-02-05T10:27:08.676Z,314.19
2019-02-05T10:28:08.647Z,314.26
2019-02-05T10:29:08.642Z,314.28
2019-02-05T10:30:08.634Z,314.24
2019-02-05T10:31:08.608Z,314.26
2019-02-05T10:32:08.616Z,314.72
2019-02-05T10:33:08.584Z,313.93
2019-02-05T10:34:08.579Z,314.15
2019-02-05T10:35:08.560Z,314.60
2019-02-05T10:36:08.560Z,314.35
2019-02-05T10:37:08.553Z,314.42
2019-02-05T10:38:08.541Z,314.32
2019-02-05T10:39:08.535Z,314.40
2019-02-05T10:40:08.514Z,314.30
2019-02-05T10:41:08.493Z,314.38
2019-02-05T10:42:08.497Z,314.27
2019-02-05T10:43:08.497Z,314.39
2019-02-05T10:44:08.483Z,314.36
2019-02-05T10:45:08.459Z,314.15
2019-02-05T10:46:08.450Z,314.03
2019-02-05T10:47:08.450Z,313.91
2019-02-05T10:48:08.422Z,314.66
2019-02-05T10:49:08.417Z,315.27
2019-02-05T10:50:08.407Z,314.86
2019-02-05T10:51:08.385Z,313.77
2019-02-05T10:52:08.391Z,314.60
2019-02-05T10:53:08.378Z,314.40
2019-02-05T10:54:08.362Z,314.03
2019-02-05T10:55:08.365Z,314.40
2019-02-05T10:56:08.333Z,314.81
2019-02-05T10:57:08.439Z,314.61
2019-02-05T10:58:08.314Z,314.28
2019-02-05T10:59:08.292Z,314.40
2019-02-05T11:00:09.264Z,314.65
2019-02-05T11:01:08.266Z,314.65
2019-02-05T11:02:08.278Z,314.27
2019-02-05T11:03:08.258Z,314.11
2019-02-05T11:04:08.254Z,314.05
2019-02-05T11:05:08.226Z,314.30
2019-02-05T11:06:08.229Z,314.72
2019-02-05T11:07:08.230Z,313.98
2019-02-05T11:08:08.194Z,314.17
2019-02-05T11:09:08.184Z,314.23
2019-02-05T11:10:08.168Z,314.35
2019-02-05T11:11:08.188Z,314.51
2019-02-05T11:12:08.173Z,314.24
2019-02-05T11:13:08.144Z,313.98
2019-02-05T11:14:08.149Z,314.21
2019-02-05T11:15:08.127Z,314.72
2019-02-05T11:16:08.139Z,314.59
2019-02-05T11:17:08.112Z,314.24
2019-02-05T11:18:08.083Z,314.05
2019-02-05T11:19:08.079Z,314.19
2019-02-05T11:20:08.062Z,314.07
2019-02-05T11:21:08.060Z,314.45
2019-02-05T11:22:08.051Z,314.32
2019-02-05T11:23:08.053Z,314.56
2019-02-05T11:24:08.030Z,314.56
2019-02-05T11:25:08.013Z,314.47
2019-02-05T11:26:08.002Z,314.51
2019-02-05T11:27:07.983Z,314.13
2019-02-05T11:28:07.982Z,314.48
2019-02-05T11:29:07.963Z,314.10
2019-02-05T11:30:07.954Z,314.57
2019-02-05T11:31:07.946Z,314.48
2019-02-05T11:32:07.949Z,314.16
2019-02-05T11:33:07.942Z,314.27
2019-02-05T11:34:07.901Z,313.85
2019-02-05T11:35:07.902Z,314.32
2019-02-05T11:36:07.885Z,314.19
2019-02-05T11:37:07.874Z,314.18
2019-02-05T11:38:07.875Z,314.10
2019-02-05T11:39:07.852Z,313.76
2019-02-05T11:40:07.849Z,313.93
2019-02-05T11:41:07.839Z,313.81
2019-02-05T11:42:07.820Z,313.71
2019-02-05T11:43:07.834Z,313.95
2019-02-05T11:44:07.797Z,314.08
2019-02-05T11:45:07.817Z,313.81
2019-02-05T11:46:07.779Z,313.37
2019-02-05T11:47:07.777Z,313.81
2019-02-05T11:48:07.765Z,313.94
2019-02-05T11:49:07.741Z,313.94
2019-02-05T11:50:07.723Z,313.99
2019-02-05T11:51:07.720Z,314.23
2019-02-05T11:52:09.736Z,314.29
2019-02-05T11:53:07.734Z,313.72
2019-02-05T11:54:07.685Z,313.97
2019-02-05T11:55:07.664Z,313.72
2019-02-05T11:56:07.657Z,314.44
2019-02-05T11:57:07.655Z,314.40
2019-02-05T11:58:07.733Z,314.00
2019-02-05T11:59:07.621Z,313.91
2019-02-05T12:00:07.616Z,313.97
2019-02-05T12:01:07.611Z,313.83
2019-02-05T12:02:07.604Z,314.12
2019-02-05T12:03:07.612Z,313.94
2019-02-05T12:04:07.592Z,313.79
2019-02-05T12:05:07.560Z,313.46
2019-02-05T12:06:07.545Z,313.78
2019-02-05T12:07:07.556Z,313.50
2019-02-05T12:08:07.548Z,314.00
2019-02-05T12:09:07.523Z,314.22
2019-02-05T12:10:07.514Z,314.59
2019-02-05T12:11:07.502Z,313.67
2019-02-05T12:12:07.480Z,313.28
2019-02-05T12:13:07.483Z,313.58
2019-02-05T12:14:07.453Z,313.43
2019-02-05T12:15:07.451Z,313.55
2019-02-05T12:16:07.429Z,313.81
2019-02-05T12:17:07.432Z,314.03
2019-02-05T12:18:07.871Z,314.21
2019-02-05T12:19:07.406Z,315.16
2019-02-05T12:20:07.408Z,314.19
2019-02-05T12:21:07.414Z,314.66
2019-02-05T12:22:07.362Z,314.67
2019-02-05T12:23:07.372Z,314.55
2019-02-05T12:24:07.350Z,314.53
2019-02-05T12:25:07.343Z,314.74
2019-02-05T12:26:07.394Z,314.88
2019-02-05T12:27:07.314Z,314.34
2019-02-05T12:28:07.328Z,314.12